createdAt,value
2017-04-10T00:00:30.888Z,1007.33
2017-04-10T00:01:11.428Z,1007.33
2017-04-10T00:01:52.022Z,1007.33
2017-04-10T00:02:32.576Z,1007.34
2017-04-10T00:03:13.084Z,1007.32
2017-04-10T00:03:53.559Z,1007.3
2017-04-10T00:04:34.075Z,1007.3
2017-04-10T00:05:14.550Z,1007.28
2017-04-10T00:05:55.043Z,1007.3
2017-04-10T00:06:35.526Z,1007.25
2017-04-10T00:07:16.046Z,1007.33
2017-04-10T00:07:56.564Z,1007.28
2017-04-10T00:08:37.075Z,1007.31
2017-04-10T00:09:17.560Z,1007.26
2017-04-10T00:09:58.069Z,1007.29
2017-04-10T00:10:38.565Z,1007.27
2017-04-10T00:11:19.080Z,1007.31
2017-04-10T00:11:59.574Z,1007.26
2017-04-10T00:12:40.088Z,1007.29
2017-04-10T00:13:20.585Z,1007.25
2017-04-10T00:14:01.090Z,1007.24
2017-04-10T00:14:41.584Z,1007.32
2017-04-10T00:15:22.115Z,1007.3
2017-04-10T00:16:02.619Z,1007.31
2017-04-10T00:16:43.123Z,1007.31
2017-04-10T00:17:23.610Z,1007.3
2017-04-10T00:18:04.116Z,1007.34
2017-04-10T00:18:44.607Z,1007.33
2017-04-10T00:19:25.100Z,1007.31
2017-04-10T00:20:05.599Z,1007.33
2017-04-10T00:20:46.073Z,1007.28
2017-04-10T00:21:26.562Z,1007.28
2017-04-10T00:22:07.075Z,1007.28
2017-04-10T00:22:47.600Z,1007.25
2017-04-10T00:23:28.042Z,1007.28
2017-04-10T00:24:08.566Z,1007.23
2017-04-10T00:24:49.063Z,1007.29
2017-04-10T00:25:29.569Z,1007.21
2017-04-10T00:26:10.063Z,1007.23
2017-04-10T00:26:50.588Z,1007.19
2017-04-10T00:27:31.120Z,1007.26
2017-04-10T00:28:11.559Z,1007.24
2017-04-10T00:28:52.050Z,1007.21
2017-04-10T00:29:32.567Z,1007.22
2017-04-10T00:30:13.057Z,1007.17
2017-04-10T00:30:53.576Z,1007.2
2017-04-10T00:31:34.063Z,1007.19
2017-04-10T00:32:14.610Z,1007.17
2017-04-10T00:32:55.071Z,1007.21
2017-04-10T00:33:35.556Z,1007.15
2017-04-10T00:34:16.065Z,1007.14
2017-04-10T00:34:56.599Z,1007.19
2017-04-10T00:35:37.092Z,1007.18
2017-04-10T00:36:17.605Z,1007.21
2017-04-10T00:36:58.117Z,1007.2
2017-04-10T00:37:38.610Z,1007.15
2017-04-10T00:38:19.101Z,1007.2
2017-04-10T00:38:59.636Z,1007.17
2017-04-10T00:39:40.156Z,1007.16
2017-04-10T00:40:20.667Z,1007.1
2017-04-10T00:41:01.143Z,1007.13
2017-04-10T00:41:41.659Z,1007.14
2017-04-10T00:42:22.141Z,1007.14
2017-04-10T00:43:02.635Z,1007.14
2017-04-10T00:43:43.149Z,1007.09
2017-04-10T00:44:23.620Z,1007.1
2017-04-10T00:45:04.138Z,1007.12
2017-04-10T00:45:44.627Z,1007.09
2017-04-10T00:46:25.137Z,1007.07
2017-04-10T00:47:05.662Z,1007.08
2017-04-10T00:47:46.144Z,1007.06
2017-04-10T00:48:26.646Z,1007.04
2017-04-10T00:49:07.136Z,1007.04
2017-04-10T00:49:47.665Z,1007.07
2017-04-10T00:50:28.163Z,1007.03
2017-04-10T00:51:08.638Z,1007.07
2017-04-10T00:51:49.132Z,1007
2017-04-10T00:52:29.673Z,1007
2017-04-10T00:53:10.160Z,1007.05
2017-04-10T00:53:50.641Z,1007.02
2017-04-10T00:54:31.165Z,1007.02
2017-04-10T00:55:11.669Z,1007.04
2017-04-10T00:55:52.104Z,1007.05
2017-04-10T00:56:32.622Z,1007.07
2017-04-10T00:57:13.107Z,1007
2017-04-10T00:57:53.644Z,1007.01
2017-04-10T00:58:34.130Z,1007
2017-04-10T00:59:14.634Z,1007.03
2017-04-10T00:59:55.169Z,1006.99
2017-04-10T01:00:35.639Z,1007.01
2017-04-10T01:01:16.134Z,1007.02
2017-04-10T01:01:56.614Z,1007.04
2017-04-10T01:02:37.125Z,1007.01
2017-04-10T01:03:17.602Z,1006.99
2017-04-10T01:03:58.106Z,1006.88
2017-04-10T01:04:38.645Z,1006.93
2017-04-10T01:05:19.103Z,1006.92
2017-04-10T01:05:59.604Z,1006.92
2017-04-10T01:06:40.090Z,1006.89
2017-04-10T01:07:20.565Z,1006.87
2017-04-10T01:08:01.075Z,1006.9
2017-04-10T01:08:41.564Z,1006.83
2017-04-10T01:09:22.057Z,1006.88
2017-04-10T01:10:02.556Z,1006.86
2017-04-10T01:10:43.070Z,1006.82
2017-04-10T01:11:23.553Z,1006.84
2017-04-10T01:12:04.073Z,1006.84
2017-04-10T01:12:44.539Z,1006.84
2017-04-10T01:13:25.124Z,1006.87
2017-04-10T01:14:05.538Z,1006.86
2017-04-10T01:14:46.091Z,1006.83
2017-04-10T01:15:26.536Z,1006.84
2017-04-10T01:16:07.044Z,1006.86
2017-04-10T01:16:47.544Z,1006.81
2017-04-10T01:17:28.014Z,1006.82
2017-04-10T01:18:08.530Z,1006.82
2017-04-10T01:18:49.001Z,1006.8
2017-04-10T01:19:29.500Z,1006.78
2017-04-10T01:20:10.007Z,1006.75
2017-04-10T01:20:50.523Z,1006.75
2017-04-10T01:21:30.994Z,1006.79
2017-04-10T01:22:11.522Z,1006.76
2017-04-10T01:22:52.006Z,1006.75
2017-04-10T01:23:32.528Z,1006.77
2017-04-10T01:24:13.048Z,1006.75
2017-04-10T01:24:53.512Z,1006.73
2017-04-10T01:25:34.028Z,1006.69
2017-04-10T01:26:14.530Z,1006.73
2017-04-10T01:26:55.012Z,1006.71
2017-04-10T01:27:35.521Z,1006.7
2017-04-10T01:28:16.023Z,1006.69
2017-04-10T01:28:56.523Z,1006.71
2017-04-10T01:29:37.082Z,1006.68
2017-04-10T01:30:17.575Z,1006.64
2017-04-10T01:30:58.019Z,1006.66
2017-04-10T01:31:38.547Z,1006.67
2017-04-10T01:32:19.048Z,1006.69
2017-04-10T01:32:59.553Z,1006.66
2017-04-10T01:33:40.012Z,1006.63
2017-04-10T01:34:20.500Z,1006.64
2017-04-10T01:35:01.024Z,1006.62
2017-04-10T01:35:41.558Z,1006.6
2017-04-10T01:36:22.016Z,1006.58
2017-04-10T01:37:02.564Z,1006.59
2017-04-10T01:37:43.029Z,1006.62
2017-04-10T01:38:23.517Z,1006.59
2017-04-10T01:39:04.021Z,1006.58
2017-04-10T01:39:44.535Z,1006.55
2017-04-10T01:40:25.036Z,1006.53
2017-04-10T01:41:05.521Z,1006.57
2017-04-10T01:41:46.062Z,1006.55
2017-04-10T01:42:26.549Z,1006.51
2017-04-10T01:43:07.036Z,1006.53
2017-04-10T01:43:47.529Z,1006.5
2017-04-10T01:44:28.063Z,1006.51
2017-04-10T01:45:08.535Z,1006.49
2017-04-10T01:45:49.024Z,1006.49
2017-04-10T01:46:29.505Z,1006.52
2017-04-10T01:47:10.023Z,1006.48
2017-04-10T01:47:50.492Z,1006.46
2017-04-10T01:48:30.990Z,1006.41
2017-04-10T01:49:11.489Z,1006.42
2017-04-10T01:49:51.994Z,1006.41
2017-04-10T01:50:32.490Z,1006.42
2017-04-10T01:51:12.989Z,1006.39
2017-04-10T01:51:53.489Z,1006.4
2017-04-10T01:52:34.005Z,1006.39
2017-04-10T01:53:14.470Z,1006.36
2017-04-10T01:53:55.041Z,1006.42
2017-04-10T01:54:35.568Z,1006.38
2017-04-10T01:55:16.044Z,1006.39
2017-04-10T01:55:56.560Z,1006.44
2017-04-10T01:56:37.030Z,1006.39
2017-04-10T01:57:17.531Z,1006.48
2017-04-10T01:57:58.018Z,1006.44
2017-04-10T01:58:38.517Z,1006.46
2017-04-10T01:59:19.026Z,1006.4
2017-04-10T01:59:59.507Z,1006.45
2017-04-10T02:00:39.992Z,1006.42
2017-04-10T02:01:20.501Z,1006.42
2017-04-10T02:02:00.984Z,1006.43
2017-04-10T02:02:41.479Z,1006.37
2017-04-10T02:03:21.964Z,1006.38
2017-04-10T02:04:02.490Z,1006.4
2017-04-10T02:04:42.957Z,1006.37
2017-04-10T02:05:23.455Z,1006.4
2017-04-10T02:06:03.956Z,1006.38
2017-04-10T02:06:44.469Z,1006.39
2017-04-10T02:07:24.965Z,1006.4
2017-04-10T02:08:05.456Z,1006.42
2017-04-10T02:08:45.986Z,1006.39
2017-04-10T02:09:26.476Z,1006.4
2017-04-10T02:10:06.951Z,1006.37
2017-04-10T02:10:47.473Z,1006.39
2017-04-10T02:11:27.989Z,1006.4
2017-04-10T02:12:08.458Z,1006.38
2017-04-10T02:12:48.956Z,1006.42
2017-04-10T02:13:29.444Z,1006.37
2017-04-10T02:14:09.955Z,1006.33
2017-04-10T02:14:50.450Z,1006.35
2017-04-10T02:15:30.965Z,1006.34
2017-04-10T02:16:11.464Z,1006.32
2017-04-10T02:16:51.946Z,1006.3
2017-04-10T02:17:32.470Z,1006.3
2017-04-10T02:18:12.968Z,1006.31
2017-04-10T02:18:53.475Z,1006.27
2017-04-10T02:19:33.983Z,1006.21
2017-04-10T02:20:14.486Z,1006.23
2017-04-10T02:20:54.984Z,1006.2
2017-04-10T02:21:35.487Z,1006.21
2017-04-10T02:22:15.984Z,1006.23
2017-04-10T02:22:56.501Z,1006.18
2017-04-10T02:23:37.005Z,1006.17
2017-04-10T02:24:17.498Z,1006.18
2017-04-10T02:24:58.008Z,1006.15
2017-04-10T02:25:38.472Z,1006.2
2017-04-10T02:26:18.972Z,1006.16
2017-04-10T02:26:59.464Z,1006.15
2017-04-10T02:27:39.964Z,1006.17
2017-04-10T02:28:20.476Z,1006.2
2017-04-10T02:29:00.958Z,1006.16
2017-04-10T02:29:41.458Z,1006.21
2017-04-10T02:30:21.982Z,1006.17
2017-04-10T02:31:02.480Z,1006.19
2017-04-10T02:31:42.984Z,1006.2
2017-04-10T02:32:23.495Z,1006.18
2017-04-10T02:33:03.961Z,1006.2
2017-04-10T02:33:44.484Z,1006.27
2017-04-10T02:34:25.004Z,1006.2
2017-04-10T02:35:05.501Z,1006.17
2017-04-10T02:35:46.002Z,1006.21
2017-04-10T02:36:26.517Z,1006.2
2017-04-10T02:37:07.000Z,1006.14
2017-04-10T02:37:47.520Z,1006.11
2017-04-10T02:38:28.042Z,1006.17
2017-04-10T02:39:08.511Z,1006.17
2017-04-10T02:39:49.042Z,1006.14
2017-04-10T02:40:29.537Z,1006.09
2017-04-10T02:41:10.067Z,1006.1
2017-04-10T02:41:50.514Z,1006.11
2017-04-10T02:42:31.003Z,1006.14
2017-04-10T02:43:11.495Z,1006.13
2017-04-10T02:43:51.987Z,1006.14
2017-04-10T02:44:32.478Z,1006.13
2017-04-10T02:45:12.984Z,1006.11
2017-04-10T02:45:53.484Z,1006.09
2017-04-10T02:46:33.980Z,1006.13
2017-04-10T02:47:14.465Z,1006.11
2017-04-10T02:47:54.983Z,1006.11
2017-04-10T02:48:35.473Z,1006.09
2017-04-10T02:49:15.973Z,1006.12
2017-04-10T02:49:56.498Z,1006.13
2017-04-10T02:50:36.960Z,1006.16
2017-04-10T02:51:17.463Z,1006.12
2017-04-10T02:51:57.979Z,1006.18
2017-04-10T02:52:38.496Z,1006.18
2017-04-10T02:53:18.997Z,1006.15
2017-04-10T02:53:59.469Z,1006.1
2017-04-10T02:54:39.980Z,1006.13
2017-04-10T02:55:20.459Z,1006.09
2017-04-10T02:56:00.952Z,1006.14
2017-04-10T02:56:41.437Z,1006.11
2017-04-10T02:57:21.960Z,1006.1
2017-04-10T02:58:02.466Z,1006.1
2017-04-10T02:58:42.955Z,1006.1
2017-04-10T02:59:23.436Z,1006.07
2017-04-10T03:00:03.946Z,1006.09
2017-04-10T03:00:44.431Z,1006.08
2017-04-10T03:01:24.919Z,1006.07
2017-04-10T03:02:05.435Z,1006.05
2017-04-10T03:02:45.943Z,1006.02
2017-04-10T03:03:26.435Z,1006.01
2017-04-10T03:04:06.919Z,1006
2017-04-10T03:04:47.428Z,1005.98
2017-04-10T03:05:27.926Z,1006
2017-04-10T03:06:08.432Z,1005.95
2017-04-10T03:06:48.920Z,1006
2017-04-10T03:07:29.418Z,1005.98
2017-04-10T03:08:09.904Z,1005.99
2017-04-10T03:08:50.428Z,1006.03
2017-04-10T03:09:30.931Z,1006.02
2017-04-10T03:10:11.400Z,1005.98
2017-04-10T03:10:51.903Z,1006
2017-04-10T03:11:32.426Z,1006.04
2017-04-10T03:12:12.931Z,1005.99
2017-04-10T03:12:53.433Z,1006
2017-04-10T03:13:33.902Z,1006.02
2017-04-10T03:14:14.406Z,1005.99
2017-04-10T03:14:54.896Z,1005.98
2017-04-10T03:15:35.405Z,1006.02
2017-04-10T03:16:15.903Z,1006.02
2017-04-10T03:16:56.383Z,1005.99
2017-04-10T03:17:36.844Z,1005.99
2017-04-10T03:18:17.360Z,1005.98
2017-04-10T03:18:57.889Z,1006
2017-04-10T03:19:38.366Z,1006.01
2017-04-10T03:20:18.844Z,1006.02
2017-04-10T03:20:59.373Z,1005.99
2017-04-10T03:21:39.851Z,1006.02
2017-04-10T03:22:20.375Z,1005.98
2017-04-10T03:23:00.878Z,1005.95
2017-04-10T03:23:41.342Z,1006.03
2017-04-10T03:24:21.874Z,1006.01
2017-04-10T03:25:02.309Z,1005.97
2017-04-10T03:25:42.836Z,1006
2017-04-10T03:26:23.347Z,1005.97
2017-04-10T03:27:03.817Z,1006
2017-04-10T03:27:44.306Z,1005.98
2017-04-10T03:28:24.796Z,1005.99
2017-04-10T03:29:05.298Z,1005.93
2017-04-10T03:29:45.796Z,1005.98
2017-04-10T03:30:26.303Z,1005.94
2017-04-10T03:31:06.813Z,1005.95
2017-04-10T03:31:47.266Z,1005.95
2017-04-10T03:32:27.787Z,1005.96
2017-04-10T03:33:08.265Z,1005.93
2017-04-10T03:33:48.780Z,1005.92
2017-04-10T03:34:29.256Z,1005.94
2017-04-10T03:35:09.741Z,1005.95
2017-04-10T03:35:50.243Z,1005.94
2017-04-10T03:36:30.749Z,1005.89
2017-04-10T03:37:11.255Z,1005.89
2017-04-10T03:37:51.766Z,1005.88
2017-04-10T03:38:32.278Z,1005.87
2017-04-10T03:39:12.770Z,1005.86
2017-04-10T03:39:53.258Z,1005.91
2017-04-10T03:40:33.727Z,1005.88
2017-04-10T03:41:14.240Z,1005.87
2017-04-10T03:41:54.756Z,1005.86
2017-04-10T03:42:35.218Z,1005.84
2017-04-10T03:43:15.713Z,1005.87
2017-04-10T03:43:56.182Z,1005.87
2017-04-10T03:44:36.709Z,1005.87
2017-04-10T03:45:17.170Z,1005.85
2017-04-10T03:45:57.665Z,1005.79
2017-04-10T03:46:38.155Z,1005.83
2017-04-10T03:47:18.647Z,1005.82
2017-04-10T03:47:59.129Z,1005.85
2017-04-10T03:48:39.630Z,1005.82
2017-04-10T03:49:20.150Z,1005.79
2017-04-10T03:50:00.632Z,1005.75
2017-04-10T03:50:41.148Z,1005.79
2017-04-10T03:51:21.637Z,1005.83
2017-04-10T03:52:02.139Z,1005.87
2017-04-10T03:52:42.637Z,1005.81
2017-04-10T03:53:23.146Z,1005.79
2017-04-10T03:54:03.697Z,1005.81
2017-04-10T03:54:44.132Z,1005.84
2017-04-10T03:55:24.626Z,1005.83
2017-04-10T03:56:05.138Z,1005.79
2017-04-10T03:56:45.597Z,1005.79
2017-04-10T03:57:26.107Z,1005.8
2017-04-10T03:58:06.581Z,1005.82
2017-04-10T03:58:47.079Z,1005.81
2017-04-10T03:59:27.774Z,1005.79
2017-04-10T04:00:08.280Z,1005.83
2017-04-10T04:00:48.776Z,1005.79
2017-04-10T04:01:29.282Z,1005.78
2017-04-10T04:02:09.774Z,1005.8
2017-04-10T04:02:50.299Z,1005.79
2017-04-10T04:03:30.808Z,1005.8
2017-04-10T04:04:11.312Z,1005.85
2017-04-10T04:04:51.785Z,1005.82
2017-04-10T04:05:32.280Z,1005.84
2017-04-10T04:06:12.760Z,1005.84
2017-04-10T04:06:53.303Z,1005.82
2017-04-10T04:07:33.766Z,1005.82
2017-04-10T04:08:14.308Z,1005.81
2017-04-10T04:08:54.789Z,1005.77
2017-04-10T04:09:35.289Z,1005.79
2017-04-10T04:10:15.839Z,1005.77
2017-04-10T04:10:56.336Z,1005.81
2017-04-10T04:11:36.852Z,1005.8
2017-04-10T04:12:17.351Z,1005.76
2017-04-10T04:12:57.847Z,1005.77
2017-04-10T04:13:38.318Z,1005.78
2017-04-10T04:14:18.827Z,1005.8
2017-04-10T04:14:59.335Z,1005.83
2017-04-10T04:15:39.845Z,1005.76
2017-04-10T04:16:20.290Z,1005.79
2017-04-10T04:17:00.782Z,1005.76
2017-04-10T04:17:41.295Z,1005.8
2017-04-10T04:18:21.784Z,1005.76
2017-04-10T04:19:02.289Z,1005.73
2017-04-10T04:19:42.746Z,1005.75
2017-04-10T04:20:23.262Z,1005.76
2017-04-10T04:21:03.758Z,1005.72
2017-04-10T04:21:44.268Z,1005.76
2017-04-10T04:22:24.769Z,1005.71
2017-04-10T04:23:05.267Z,1005.77
2017-04-10T04:23:45.759Z,1005.74
2017-04-10T04:24:26.243Z,1005.75
2017-04-10T04:25:06.724Z,1005.73
2017-04-10T04:25:47.217Z,1005.73
2017-04-10T04:26:27.729Z,1005.76
2017-04-10T04:27:08.215Z,1005.74
2017-04-10T04:27:48.697Z,1005.79
2017-04-10T04:28:29.215Z,1005.77
2017-04-10T04:29:09.691Z,1005.82
2017-04-10T04:29:50.187Z,1005.75
2017-04-10T04:30:30.705Z,1005.78
2017-04-10T04:31:11.191Z,1005.79
2017-04-10T04:31:51.709Z,1005.77
2017-04-10T04:32:32.188Z,1005.78
2017-04-10T04:33:12.678Z,1005.76
2017-04-10T04:33:53.229Z,1005.73
2017-04-10T04:34:33.686Z,1005.77
2017-04-10T04:35:14.187Z,1005.74
2017-04-10T04:35:54.680Z,1005.73
2017-04-10T04:36:35.208Z,1005.72
2017-04-10T04:37:15.678Z,1005.71
2017-04-10T04:37:56.168Z,1005.7
2017-04-10T04:38:36.672Z,1005.72
2017-04-10T04:39:17.216Z,1005.68
2017-04-10T04:39:57.680Z,1005.7
2017-04-10T04:40:38.181Z,1005.78
2017-04-10T04:41:18.703Z,1005.75
2017-04-10T04:41:59.178Z,1005.76
2017-04-10T04:42:39.675Z,1005.76
2017-04-10T04:43:20.181Z,1005.77
2017-04-10T04:44:00.693Z,1005.82
2017-04-10T04:44:41.173Z,1005.79
2017-04-10T04:45:21.704Z,1005.81
2017-04-10T04:46:02.173Z,1005.82
2017-04-10T04:46:42.693Z,1005.84
2017-04-10T04:47:23.145Z,1005.91
2017-04-10T04:48:03.670Z,1005.92
2017-04-10T04:48:44.121Z,1005.92
2017-04-10T04:52:45.272Z,1005.97
2017-04-10T04:53:25.775Z,1005.97
2017-04-10T04:54:06.318Z,1006.02
2017-04-10T04:54:46.737Z,1006.02
2017-04-10T04:55:27.292Z,1006.04
2017-04-10T04:56:07.755Z,1006.03
2017-04-10T04:56:48.225Z,1006
2017-04-10T04:57:28.723Z,1005.98
2017-04-10T04:58:09.213Z,1005.99
2017-04-10T04:58:49.731Z,1006.04
2017-04-10T04:59:30.310Z,1006.09
2017-04-10T05:00:10.781Z,1006.09
2017-04-10T05:00:51.300Z,1006.11
2017-04-10T05:01:31.721Z,1006.09
2017-04-10T05:02:12.184Z,1006.08
2017-04-10T05:02:52.674Z,1006.09
2017-04-10T05:03:33.176Z,1006.13
2017-04-10T05:04:13.680Z,1006.15
2017-04-10T05:04:54.167Z,1006.09
2017-04-10T05:05:34.641Z,1005.99
2017-04-10T05:06:15.128Z,1006.1
2017-04-10T05:06:55.614Z,1006.07
2017-04-10T05:07:36.115Z,1006.05
2017-04-10T05:08:16.596Z,1006.06
2017-04-10T05:08:57.089Z,1006.02
2017-04-10T05:09:37.609Z,1006.06
2017-04-10T05:10:18.134Z,1006.03
2017-04-10T05:10:58.592Z,1006.08
2017-04-10T05:11:39.073Z,1006.13
2017-04-10T05:12:19.576Z,1006.09
2017-04-10T05:13:00.093Z,1006.14
2017-04-10T05:13:40.562Z,1006.11
2017-04-10T05:14:21.062Z,1006.13
2017-04-10T05:15:01.550Z,1006.23
2017-04-10T05:15:42.050Z,1006.14
2017-04-10T05:16:22.570Z,1006.23
2017-04-10T05:17:03.056Z,1006.24
2017-04-10T05:17:43.521Z,1006.27
2017-04-10T05:18:24.031Z,1006.25
2017-04-10T05:19:04.555Z,1006.25
2017-04-10T05:19:45.056Z,1006.23
2017-04-10T05:20:25.548Z,1006.23
2017-04-10T05:21:06.133Z,1006.26
2017-04-10T05:21:46.553Z,1006.28
2017-04-10T05:22:27.025Z,1006.3
2017-04-10T05:23:07.551Z,1006.24
2017-04-10T05:23:48.022Z,1006.25
2017-04-10T05:24:28.552Z,1006.28
2017-04-10T05:25:09.060Z,1006.31
2017-04-10T05:25:49.614Z,1006.29
2017-04-10T05:26:30.093Z,1006.3
2017-04-10T05:27:10.575Z,1006.31
2017-04-10T05:27:51.077Z,1006.3
2017-04-10T05:28:31.565Z,1006.35
2017-04-10T05:29:12.086Z,1006.35
2017-04-10T05:29:52.559Z,1006.29
2017-04-10T05:30:33.084Z,1006.34
2017-04-10T05:31:13.607Z,1006.29
2017-04-10T05:31:54.056Z,1006.24
2017-04-10T05:32:34.563Z,1006.3
2017-04-10T05:33:15.188Z,1006.33
2017-04-10T05:33:55.725Z,1006.35
2017-04-10T05:34:36.175Z,1006.41
2017-04-10T05:35:16.731Z,1006.39
2017-04-10T05:35:57.236Z,1006.41
2017-04-10T05:36:37.701Z,1006.38
2017-04-10T05:37:18.192Z,1006.39
2017-04-10T05:37:58.681Z,1006.36
2017-04-10T05:38:39.164Z,1006.34
2017-04-10T05:39:19.639Z,1006.35
2017-04-10T05:40:00.153Z,1006.33
2017-04-10T05:40:40.626Z,1006.35
2017-04-10T05:41:21.204Z,1006.33
2017-04-10T05:42:01.611Z,1006.33
2017-04-10T05:42:42.137Z,1006.38
2017-04-10T05:43:22.685Z,1006.36
2017-04-10T05:44:03.203Z,1006.35
2017-04-10T05:44:43.717Z,1006.36
2017-04-10T05:45:24.191Z,1006.33
2017-04-10T05:46:04.700Z,1006.33
2017-04-10T05:46:45.190Z,1006.34
2017-04-10T05:47:25.682Z,1006.36
2017-04-10T05:48:06.182Z,1006.3
2017-04-10T05:48:46.677Z,1006.34
2017-04-10T05:49:27.151Z,1006.33
2017-04-10T05:50:07.735Z,1006.4
2017-04-10T05:50:48.146Z,1006.39
2017-04-10T05:51:28.630Z,1006.38
2017-04-10T05:52:09.194Z,1006.41
2017-04-10T05:52:49.710Z,1006.42
2017-04-10T05:53:30.184Z,1006.44
2017-04-10T05:54:10.698Z,1006.47
2017-04-10T05:54:51.182Z,1006.45
2017-04-10T05:55:31.700Z,1006.42
2017-04-10T05:56:12.204Z,1006.43
2017-04-10T05:58:30.627Z,1006.41
2017-04-10T05:59:11.091Z,1006.38
2017-04-10T05:59:51.631Z,1006.38
2017-04-10T06:00:32.165Z,1006.36
2017-04-10T06:02:25.295Z,1006.37
2017-04-10T06:03:05.740Z,1006.29
2017-04-10T06:03:46.276Z,1006.39
2017-04-10T06:04:26.765Z,1006.35
2017-04-10T06:05:07.290Z,1006.34
2017-04-10T06:05:47.790Z,1006.36
2017-04-10T06:06:28.321Z,1006.41
2017-04-10T06:07:08.795Z,1006.39
2017-04-10T06:07:49.248Z,1006.36
2017-04-10T06:08:29.781Z,1006.4
2017-04-10T06:09:10.301Z,1006.34
2017-04-10T06:09:50.882Z,1006.36
2017-04-10T06:10:31.350Z,1006.38
2017-04-10T06:11:11.809Z,1006.38
2017-04-10T06:11:52.537Z,1006.4
2017-04-10T06:12:33.072Z,1006.4
2017-04-10T06:13:13.504Z,1006.34
2017-04-10T06:13:54.017Z,1006.4
2017-04-10T06:14:34.561Z,1006.36
2017-04-10T06:15:15.020Z,1006.38
2017-04-10T06:15:55.566Z,1006.4
2017-04-10T06:16:36.032Z,1006.38
2017-04-10T06:17:16.561Z,1006.38
2017-04-10T06:17:57.052Z,1006.4
2017-04-10T06:18:37.549Z,1006.38
2017-04-10T06:19:18.053Z,1006.38
2017-04-10T06:19:58.762Z,1006.41
2017-04-10T06:20:39.311Z,1006.37
2017-04-10T06:21:19.823Z,1006.42
2017-04-10T06:22:00.382Z,1006.39
2017-04-10T06:22:40.910Z,1006.43
2017-04-10T06:23:22.180Z,1006.38
2017-04-10T06:24:02.855Z,1006.42
2017-04-10T06:24:43.381Z,1006.46
2017-04-10T06:25:24.394Z,1006.5
2017-04-10T06:27:38.292Z,1006.44
2017-04-10T06:28:18.722Z,1006.46
2017-04-10T06:28:59.292Z,1006.45
2017-04-10T06:29:39.743Z,1006.39
2017-04-10T06:30:20.382Z,1006.44
2017-04-10T06:31:00.799Z,1006.4
2017-04-10T06:31:41.375Z,1006.48
2017-04-10T06:32:21.806Z,1006.4
2017-04-10T06:33:02.308Z,1006.41
2017-04-10T06:33:42.782Z,1006.43
2017-04-10T06:34:23.265Z,1006.36
2017-04-10T06:35:03.826Z,1006.4
2017-04-10T06:35:44.331Z,1006.39
2017-04-10T06:36:24.847Z,1006.43
2017-04-10T06:37:05.316Z,1006.38
2017-04-10T06:37:45.800Z,1006.4
2017-04-10T06:38:26.351Z,1006.4
2017-04-10T06:39:06.786Z,1006.36
2017-04-10T06:39:47.354Z,1006.39
2017-04-10T06:40:27.801Z,1006.37
2017-04-10T06:41:08.276Z,1006.39
2017-04-10T06:41:48.766Z,1006.37
2017-04-10T06:42:29.286Z,1006.39
2017-04-10T06:43:09.782Z,1006.43
2017-04-10T06:43:50.271Z,1006.42
2017-04-10T06:44:30.809Z,1006.43
2017-04-10T06:45:11.283Z,1006.43
2017-04-10T06:45:51.770Z,1006.42
2017-04-10T06:46:32.255Z,1006.42
2017-04-10T06:47:12.770Z,1006.45
2017-04-10T06:47:53.273Z,1006.43
2017-04-10T06:48:33.789Z,1006.45
2017-04-10T06:49:14.281Z,1006.45
2017-04-10T06:49:54.762Z,1006.43
2017-04-10T06:50:35.281Z,1006.47
2017-04-10T06:51:15.813Z,1006.44
2017-04-10T06:51:56.309Z,1006.41
2017-04-10T06:52:36.835Z,1006.41
2017-04-10T06:53:17.312Z,1006.42
2017-04-10T06:53:57.801Z,1006.37
2017-04-10T06:54:38.287Z,1006.44
2017-04-10T06:55:18.796Z,1006.43
2017-04-10T06:55:59.270Z,1006.44
2017-04-10T06:56:39.772Z,1006.45
2017-04-10T06:57:20.271Z,1006.47
2017-04-10T06:58:00.778Z,1006.43
2017-04-10T06:58:41.291Z,1006.43
2017-04-10T06:59:21.809Z,1006.42
2017-04-10T07:00:02.221Z,1006.42
2017-04-10T07:00:42.735Z,1006.39
2017-04-10T07:01:23.230Z,1006.43
2017-04-10T07:02:03.735Z,1006.48
2017-04-10T07:02:44.230Z,1006.45
2017-04-10T07:03:24.735Z,1006.44
2017-04-10T07:04:05.300Z,1006.48
2017-04-10T07:04:45.783Z,1006.43
2017-04-10T07:05:26.234Z,1006.46
2017-04-10T07:06:06.723Z,1006.51
2017-04-10T07:06:47.228Z,1006.45
2017-04-10T07:07:27.794Z,1006.42
2017-04-10T07:08:08.254Z,1006.44
2017-04-10T07:08:48.764Z,1006.42
2017-04-10T07:09:29.304Z,1006.45
2017-04-10T07:10:09.768Z,1006.41
2017-04-10T07:10:50.285Z,1006.44
2017-04-10T07:11:30.752Z,1006.45
2017-04-10T07:12:11.240Z,1006.48
2017-04-10T07:12:51.744Z,1006.46
2017-04-10T07:13:32.340Z,1006.49
2017-04-10T07:14:13.042Z,1006.45
2017-04-10T07:14:53.475Z,1006.46
2017-04-10T07:15:33.959Z,1006.45
2017-04-10T07:16:14.481Z,1006.47
2017-04-10T07:16:54.960Z,1006.44
2017-04-10T07:17:35.457Z,1006.48
2017-04-10T07:18:15.967Z,1006.49
2017-04-10T07:18:56.463Z,1006.46
2017-04-10T07:19:37.434Z,1006.46
2017-04-10T07:20:17.926Z,1006.51
2017-04-10T07:20:58.455Z,1006.49
2017-04-10T07:21:38.936Z,1006.51
2017-04-10T07:22:19.444Z,1006.53
2017-04-10T07:22:59.979Z,1006.48
2017-04-10T07:23:40.444Z,1006.49
2017-04-10T07:24:20.946Z,1006.48
2017-04-10T07:25:01.432Z,1006.5
2017-04-10T07:25:41.943Z,1006.47
2017-04-10T07:26:22.505Z,1006.44
2017-04-10T07:27:03.028Z,1006.53
2017-04-10T07:27:43.493Z,1006.55
2017-04-10T07:28:24.220Z,1006.55
2017-04-10T07:29:04.688Z,1006.53
2017-04-10T07:29:45.181Z,1006.57
2017-04-10T07:30:25.747Z,1006.52
2017-04-10T07:31:06.194Z,1006.54
2017-04-10T07:31:46.716Z,1006.59
2017-04-10T07:32:27.281Z,1006.56
2017-04-10T07:33:07.740Z,1006.59
2017-04-10T07:33:48.240Z,1006.56
2017-04-10T07:34:28.729Z,1006.53
2017-04-10T07:35:09.202Z,1006.54
2017-04-10T07:35:49.858Z,1006.52
2017-04-10T07:36:30.241Z,1006.54
2017-04-10T07:37:10.711Z,1006.47
2017-04-10T07:37:51.250Z,1006.54
2017-04-10T07:38:31.745Z,1006.53
2017-04-10T07:39:12.235Z,1006.53
2017-04-10T07:39:52.723Z,1006.53
2017-04-10T07:40:33.204Z,1006.52
2017-04-10T07:41:13.724Z,1006.47
2017-04-10T07:41:54.275Z,1006.52
2017-04-10T07:42:34.731Z,1006.53
2017-04-10T07:43:15.268Z,1006.5
2017-04-10T07:43:55.879Z,1006.48
2017-04-10T07:44:36.364Z,1006.49
2017-04-10T07:45:16.874Z,1006.53
2017-04-10T07:45:57.339Z,1006.52
2017-04-10T07:46:37.901Z,1006.51
2017-04-10T07:47:18.417Z,1006.49
2017-04-10T07:49:31.774Z,1006.49
2017-04-10T07:50:12.277Z,1006.56
2017-04-10T07:50:52.833Z,1006.5
2017-04-10T07:51:33.296Z,1006.51
2017-04-10T07:52:13.800Z,1006.54
2017-04-10T07:52:54.290Z,1006.47
2017-04-10T07:53:34.852Z,1006.51
2017-04-10T07:54:15.334Z,1006.48
2017-04-10T07:54:55.877Z,1006.52
2017-04-10T07:55:36.388Z,1006.49
2017-04-10T07:56:16.995Z,1006.49
2017-04-10T07:56:57.535Z,1006.5
2017-04-10T07:57:37.963Z,1006.46
2017-04-10T07:58:18.411Z,1006.48
2017-04-10T07:58:58.929Z,1006.5
2017-04-10T07:59:39.422Z,1006.49
2017-04-10T08:00:19.912Z,1006.53
2017-04-10T08:01:00.439Z,1006.49
2017-04-10T08:01:40.990Z,1006.51
2017-04-10T08:02:21.441Z,1006.52
2017-04-10T08:03:01.941Z,1006.51
2017-04-10T08:03:42.421Z,1006.48
2017-04-10T08:04:22.934Z,1006.45
2017-04-10T08:05:03.507Z,1006.46
2017-04-10T08:05:44.018Z,1006.47
2017-04-10T08:06:24.538Z,1006.48
2017-04-10T08:07:05.008Z,1006.42
2017-04-10T08:07:45.498Z,1006.44
2017-04-10T08:08:26.055Z,1006.42
2017-04-10T08:09:06.451Z,1006.44
2017-04-10T08:09:47.033Z,1006.42
2017-04-10T08:10:27.536Z,1006.46
2017-04-10T08:11:08.058Z,1006.49
2017-04-10T08:11:48.571Z,1006.41
2017-04-10T08:12:29.071Z,1006.45
2017-04-10T08:13:09.554Z,1006.44
2017-04-10T08:13:50.112Z,1006.44
2017-04-10T08:14:30.615Z,1006.45
2017-04-10T08:15:11.161Z,1006.47
2017-04-10T08:15:51.633Z,1006.5
2017-04-10T08:16:32.066Z,1006.51
2017-04-10T08:17:12.689Z,1006.5
2017-04-10T08:17:53.116Z,1006.46
2017-04-10T08:18:33.688Z,1006.48
2017-04-10T08:19:14.143Z,1006.46
2017-04-10T08:19:54.721Z,1006.37
2017-04-10T08:20:35.120Z,1006.38
2017-04-10T08:21:15.618Z,1006.37
2017-04-10T08:21:56.156Z,1006.4